Language selection

Weather shortcuts

Bras d'Or Lakes: Past 24 Hour Conditions

 

West Chedabucto Bay - 44489

11:00 PM ADT 22 April 2024Buoy position: 45.49N 61.14W
Disclaimer

This table is a summary of hourly weather conditions for the past 24 hours.
Please note that these observations might not always be representative of weather conditions over their associated marine area.

Date / Time
(ADT)
Wind(knots) Wave height(m) Wave period(s) Pressure(kPa) Air tempC) Water tempC)
22 April 2024
23:00 N 7 gusts 9 0.31 6.5 101.7 1 3
22:00 N 9 gusts 11 0.31 5.4 101.6 2 4
21:00 N 12 gusts 15 0.32 4.1 101.5 3 4
20:00 N 14 gusts 17 0.35 4.6 101.3 4 4
19:00 NNE 13 gusts 17 0.42 3.6 101.2 5 4
18:00 N 15 gusts 19 0.51 3.4 101.0 6 4
17:00 NNW 19 gusts 22 0.54 3.4 100.9 6 4
16:00 N 15 gusts 22 0.42 3.7 100.7 9 5
15:00 W 12 gusts 22 0.42 5.0 100.7 8 5
14:00 NW 6 gusts 9 0.44 6.2 100.7 8 4
13:00 W 8 gusts 11 0.41 5.5 100.7 8 4
12:00 W 12 gusts 16 0.48 4.0 100.7 6 4
11:00 W 16 gusts 19 0.47 4.9 100.7 6 4
10:00 W 11 gusts 12 0.46 4.6 100.7 5 4
9:00 W 9 gusts 11 0.47 5.1 100.7 5 4
8:00 W 10 gusts 12 0.43 4.7 100.7 4 4
7:00 W 11 gusts 13 0.44 5.3 100.7 4 4
6:00 WSW 9 gusts 11 0.43 4.9 100.6 4 4
5:00 WSW 12 gusts 14 0.45 4.3 100.7 4 4
4:00 WSW 12 gusts 15 0.47 4.6 100.7 4 4
3:00 SW 10 gusts 12 0.51 4.5 100.8 4 4
2:00 WSW 10 gusts 13 0.57 4.7 100.8 4 4
1:00 WSW 11 gusts 13 0.54 4.3 100.9 4 4
0:00 WSW 15 gusts 19 0.58 3.9 101.0 4 4
21 April 2024
23:00 WSW 15 gusts 21 0.61 3.9 101.0 4 4

Zoom-in to make a selection

Map of Atlantic - Newfoundland marine weather areas Banquereau - 44139 East Chedabucto Bay – 44488 West Chedabucto Bay – 44489 Blanc-Sablon Airport Cap Whittle Chevery Natashquan Airport Heath Point Îles de la Madeleine Airport Miscou Island Eskasoni (First Nations) Grand Étang Ingonish Beach North Mountain St.Paul Island J.A. Douglas McCurdy Sydney Airport Charlottetown Airport East Point North Cape Argentia Berry Hill Bonavista Burgeo Cape Race Corner Brook Daniel's Harbour Englee Ferolle Point La Scie Port aux Basques Sagona Island St. Anthony Airport St. John's Int'l Airport St. Lawrence Stephenville Airport Twillingate Winterland Branch Hill Wreckhouse Grates Cove Pool's Island Marticot Island Long Pond Cartwright Airport Mary's Harbour
Legend:
buoy Buoy
land station Land Station

Atlantic - Newfoundland Area

Another Region

Date modified: